Terminal Aerodrome Forecast
Issued by NWS

Home | Current Version | Previous Version | Text Only | Print | Product List | Glossary Off
Versions: 1 2 3 4 5 6 7 8 9 10 11 12 13 14 15 16 17 18 19 20 21 22 23 24 25 26 27 28

000
FTUS43 KPAH 161100
TAFOWB
TAF
KOWB 161120Z 1612/1712 35007KT 6SM BR OVC005
      TEMPO 1612/1613 SCT005 OVC012
     FM161300 34007KT P6SM OVC012
     FM161900 02005KT P6SM BKN025
     FM170100 01002KT P6SM SKC
     FM170900 00000KT 2SM BR FEW010=

USA.gov is the U.S. government's official web portal to all federal, state and local government web resources and services.